PREDU VNLK-VNRT
Flight info
| Callsign | PREDU |
|---|---|
| Flight time | 0h 14m |
| Altitude | 12500 |
| Route | DCT |
| Aircraft | C208/L-SDFGR/C |
Departure
| Time | 2026-01-11 04:06 |
|---|---|
| Airport | Tenzing-Hillary Airport (VNLK) |
Arrival
| Time | 2026-01-11 04:20 |
|---|---|
| Airport | Rumjatar Airport (VNRT) |
| Time | Latitude | Longitude | Altitude | Speed | Heading |
|---|---|---|---|---|---|
| 2026-01-11 03:52 | 27.68748 | 86.73199 | 9473 ft | 0 kts | 288° |
| 2026-01-11 04:02 | 27.68750 | 86.73196 | 9475 ft | 0 kts | 305° |
| 2026-01-11 04:03 | 27.68616 | 86.72830 | 9302 ft | 93 kts | 239° |
| 2026-01-11 04:04 | 27.67342 | 86.71574 | 9228 ft | 147 kts | 214° |
| 2026-01-11 04:04 | 27.65819 | 86.70017 | 9458 ft | 170 kts | 139° |
| 2026-01-11 04:05 | 27.67540 | 86.70910 | 9755 ft | 166 kts | 355° |
| 2026-01-11 04:05 | 27.67480 | 86.71724 | 10380 ft | 148 kts | 201° |
| 2026-01-11 04:06 | 27.65253 | 86.70737 | 10088 ft | 185 kts | 201° |
| 2026-01-11 04:06 | 27.63960 | 86.70285 | 9620 ft | 205 kts | 195° |
| 2026-01-11 04:06 | 27.61683 | 86.69528 | 10312 ft | 163 kts | 204° |
| 2026-01-11 04:07 | 27.59280 | 86.68995 | 10175 ft | 168 kts | 184° |
| 2026-01-11 04:08 | 27.55374 | 86.69219 | 8588 ft | 222 kts | 151° |
| 2026-01-11 04:08 | 27.52860 | 86.70401 | 7709 ft | 179 kts | 167° |
| 2026-01-11 04:09 | 27.50597 | 86.69644 | 6518 ft | 167 kts | 209° |
| 2026-01-11 04:09 | 27.49222 | 86.67583 | 6921 ft | 154 kts | 244° |
| 2026-01-11 04:09 | 27.48810 | 86.66580 | 7407 ft | 137 kts | 247° |
| 2026-01-11 04:10 | 27.47528 | 86.63889 | 8607 ft | 124 kts | 252° |
| 2026-01-11 04:10 | 27.47357 | 86.62934 | 9026 ft | 121 kts | 255° |
| 2026-01-11 04:11 | 27.47648 | 86.61261 | 9829 ft | 123 kts | 309° |
| 2026-01-11 04:12 | 27.46680 | 86.58536 | 9913 ft | 173 kts | 212° |
| 2026-01-11 04:12 | 27.44356 | 86.58137 | 9912 ft | 190 kts | 167° |
| 2026-01-11 04:13 | 27.41756 | 86.59141 | 9575 ft | 201 kts | 159° |
| 2026-01-11 04:13 | 27.39292 | 86.60409 | 9793 ft | 194 kts | 172° |
| 2026-01-11 04:14 | 27.36597 | 86.59662 | 9017 ft | 208 kts | 207° |
| 2026-01-11 04:14 | 27.35540 | 86.58658 | 8764 ft | 195 kts | 231° |
| 2026-01-11 04:14 | 27.34188 | 86.56120 | 7784 ft | 208 kts | 226° |
| 2026-01-11 04:15 | 27.31722 | 86.55537 | 5619 ft | 178 kts | 169° |
| 2026-01-11 04:15 | 27.29501 | 86.56142 | 5046 ft | 152 kts | 160° |
| 2026-01-11 04:16 | 27.28480 | 86.55835 | 4595 ft | 167 kts | 319° |
| 2026-01-11 04:17 | 27.30323 | 86.55104 | 4596 ft | 110 kts | 353° |
| 2026-01-11 04:17 | 27.30400 | 86.55755 | 5155 ft | 113 kts | 177° |
| 2026-01-11 04:17 | 27.29668 | 86.56177 | 5093 ft | 128 kts | 144° |
| 2026-01-11 04:18 | 27.28708 | 86.56874 | 4979 ft | 109 kts | 273° |
| 2026-01-11 04:18 | 27.29420 | 86.55327 | 4516 ft | 103 kts | 330° |
| 2026-01-11 04:19 | 27.30321 | 86.55102 | 4518 ft | 19 kts | 337° |
| 2026-01-11 04:19 | 27.30354 | 86.55049 | 4525 ft | 0 kts | 310° |